Flight Track Log - Related Links

Times and Time Zones

All times are in EDT time to prevent confusion due to time zone crossing. See the CDG4712 flight status page for this flight to view local times or setup timezone preferences in your user account.

Time Position Orientation Groundspeed Altitude Reporting Facility
EDT Latitude Longitude Course Direction KTS MPH feet Rate Location/Type
Thu 01:34:00 AM 23.9709 113.9020 44° Northeast  Level Estimated
Thu 01:35:00 AM 24.0350 113.9694 44° Northeast  Level Estimated
Thu 01:36:00 AM 24.0991 114.0368 44° Northeast  Level Estimated
Thu 01:37:00 AM 24.1632 114.1043 44° Northeast  Level Estimated
Thu 01:38:00 AM 24.2272 114.1718 44° Northeast  Level Estimated
Thu 01:39:00 AM 24.2912 114.2395 44° Northeast  Level Estimated
Thu 01:40:00 AM 24.3552 114.3072 44° Northeast  Level Estimated
Thu 01:41:00 AM 24.4191 114.3749 44° Northeast  Level Estimated
Thu 01:42:00 AM 24.4831 114.4427 44° Northeast  Level Estimated
Thu 01:43:00 AM 24.5469 114.5107 44° Northeast  Level Estimated
Thu 01:44:00 AM 24.6108 114.5786 44° Northeast  Level Estimated
Thu 01:45:00 AM 24.6746 114.6467 44° Northeast  Level Estimated
Thu 01:46:00 AM 24.7384 114.7148 44° Northeast  Level Estimated
Thu 01:47:00 AM 24.8022 114.7829 44° Northeast  Level Estimated
Thu 01:48:00 AM 24.8659 114.8512 44° Northeast  Level Estimated
Thu 01:49:00 AM 24.9296 114.9195 44° Northeast  Level Estimated
Thu 01:50:00 AM 24.9933 114.9879 44° Northeast  Level Estimated
Thu 01:51:00 AM 25.0569 115.0564 44° Northeast  Level Estimated
Thu 01:52:00 AM 25.1205 115.1249 44° Northeast  Level Estimated
Thu 01:53:00 AM 25.1841 115.1935 44° Northeast  Level Estimated
Thu 01:54:00 AM 25.2477 115.2622 44° Northeast  Level Estimated
Thu 01:55:00 AM 25.3112 115.3309 44° Northeast  Level Estimated
Thu 01:56:00 AM 25.3747 115.3997 44° Northeast  Level Estimated
Thu 01:57:00 AM 25.4381 115.4686 44° Northeast  Level Estimated
Thu 01:58:00 AM 25.5015 115.5376 44° Northeast  Level Estimated
Thu 01:59:00 AM 25.5649 115.6066 44° Northeast  Level Estimated
Thu 02:00:00 AM 25.6283 115.6757 45° Northeast  Level Estimated
Thu 02:01:00 AM 25.6916 115.7449 45° Northeast  Level Estimated
Thu 02:02:00 AM 25.7549 115.8142 45° Northeast  Level Estimated
Thu 02:03:00 AM 25.8181 115.8835 45° Northeast  Level Estimated
Thu 02:04:00 AM 25.8813 115.9529 45° Northeast  Level Estimated
Thu 02:05:00 AM 25.9445 116.0224 45° Northeast  Level Estimated
Thu 02:06:00 AM 26.0077 116.0919 45° Northeast  Level Estimated
Thu 02:07:00 AM 26.0708 116.1616 45° Northeast  Level Estimated
Thu 02:08:00 AM 26.1339 116.2313 45° Northeast  Level Estimated
Thu 02:09:00 AM 26.1970 116.3011 45° Northeast  Level Estimated
Thu 02:10:00 AM 26.2600 116.3709 45° Northeast  Level Estimated
Thu 02:11:00 AM 26.3230 116.4408 45° Northeast  Level Estimated
Thu 02:12:00 AM 26.3859 116.5108 45° Northeast  Level Estimated
Thu 02:13:00 AM 26.4489 116.5809 45° Northeast  Level Estimated
Thu 02:14:00 AM 26.5117 116.6511 45° Northeast  Level Estimated
Thu 02:15:00 AM 26.5746 116.7213 45° Northeast  Level Estimated
Thu 02:16:00 AM 26.6374 116.7916 45° Northeast  Level Estimated
Thu 02:17:00 AM 26.7002 116.8620 45° Northeast  Level Estimated
Thu 02:18:00 AM 26.7629 116.9325 45° Northeast  Level Estimated
Thu 02:19:00 AM 26.8256 117.0030 45° Northeast  Level Estimated
Thu 02:20:00 AM 26.8883 117.0737 45° Northeast  Level Estimated
Thu 02:21:00 AM 26.9510 117.1444 45° Northeast  Level Estimated
Thu 02:22:00 AM 27.0136 117.2151 45° Northeast  Level Estimated
Thu 02:23:00 AM 27.0761 117.2860 45° Northeast  Level Estimated
Thu 02:24:00 AM 27.1387 117.3569 45° Northeast  Level Estimated
Thu 02:25:00 AM 27.2012 117.4280 45° Northeast  Level Estimated
Thu 02:26:00 AM 27.2636 117.4991 45° Northeast  Level Estimated
Thu 02:27:00 AM 27.3261 117.5703 45° Northeast  Level Estimated
Thu 02:28:00 AM 27.3885 117.6415 45° Northeast  Level Estimated
Thu 02:29:00 AM 27.4508 117.7128 45° Northeast  Level Estimated
Thu 02:30:00 AM 27.5131 117.7843 45° Northeast  Level Estimated
Thu 02:31:00 AM 27.5754 117.8558 45° Northeast  Level Estimated
Thu 02:32:00 AM 27.6377 117.9273 46° Northeast  Level Estimated
Thu 02:33:00 AM 27.6999 117.9990 46° Northeast  Level Estimated
Thu 02:34:00 AM 27.7019 118.0014 46° Northeast  Level Estimated
Thu 02:35:00 AM 27.7019 118.0014 North  Level Estimated
Thu 02:36:00 AM 27.7019 118.0014 North  Level Estimated
Thu 02:37:00 AM 27.7019 118.0014 North  Level Estimated
Thu 02:38:00 AM 27.7019 118.0014 North  Level Estimated

Login

Don't have an account? Register now (free) for customized features, flight alerts, and more!